Time;durP1;ratioP1;P1;durP2;ratioP2;P2;SDS_P1;SDS_P2;PMS_P1;PMS_P2;Temp;Humidity;BMP_temperature;BMP_pressure;BME280_temperature;BME280_humidity;BME280_pressure;Samples;Min_cycle;Max_cycle;Signal;HPM_P1;HPM_P2
2021/12/29 00:02:25;;;;;;;111.68;26.05;;;6.40;99.90;;;;;;5011338;28;20045;-87
2021/12/29 00:04:50;;;;;;;115.05;26.95;;;6.40;99.90;;;;;;5005903;28;20052;-86
2021/12/29 00:07:16;;;;;;;88.90;25.00;;;6.40;99.90;;;;;;4988504;28;20128;-87
2021/12/29 00:09:42;;;;;;;91.00;25.27;;;6.40;99.90;;;;;;4985243;28;20372;-86
2021/12/29 00:12:10;;;;;;;69.85;20.52;;;6.40;99.90;;;;;;4988591;28;20052;-87
2021/12/29 00:14:37;;;;;;;47.00;16.35;;;6.40;99.90;;;;;;5032557;28;20589;-87
2021/12/29 00:17:03;;;;;;;45.92;15.88;;;6.30;99.90;;;;;;5034632;28;20061;-87
2021/12/29 00:19:29;;;;;;;48.08;15.38;;;6.40;99.90;;;;;;5006542;28;20032;-87
2021/12/29 00:21:55;;;;;;;34.42;12.35;;;6.30;99.90;;;;;;5014495;28;20059;-87
2021/12/29 00:24:20;;;;;;;44.42;13.90;;;7.00;99.90;;;;;;5009250;28;20894;-87
2021/12/29 00:26:46;;;;;;;40.60;13.55;;;6.40;99.90;;;;;;5014581;28;20092;-86
2021/12/29 00:29:12;;;;;;;45.03;13.88;;;7.00;99.90;;;;;;5009297;28;20060;-86
2021/12/29 00:31:38;;;;;;;30.00;10.77;;;6.70;99.90;;;;;;5032683;28;20090;-86
2021/12/29 00:34:03;;;;;;;41.28;12.82;;;6.50;99.90;;;;;;5015957;28;20716;-87
2021/12/29 00:36:29;;;;;;;31.10;11.45;;;6.30;99.90;;;;;;5000399;28;20048;-86
2021/12/29 00:38:55;;;;;;;38.15;11.38;;;6.30;99.90;;;;;;5003534;28;20041;-85
2021/12/29 00:41:21;;;;;;;35.10;11.85;;;6.30;99.90;;;;;;5011062;28;20033;-86
2021/12/29 00:43:47;;;;;;;31.90;11.77;;;6.30;99.90;;;;;;5005350;28;20033;-86
2021/12/29 00:46:17;;;;;;;24.52;9.98;;;6.30;99.90;;;;;;4997125;28;20032;-86
2021/12/29 00:48:44;;;;;;;26.83;9.23;;;6.20;99.90;;;;;;5011336;28;20033;-86
2021/12/29 00:51:11;;;;;;;24.33;8.93;;;6.40;99.90;;;;;;5024259;28;20037;-87
2021/12/29 00:53:38;;;;;;;24.33;8.55;;;6.90;99.90;;;;;;4997474;28;20040;-87
2021/12/29 00:56:05;;;;;;;23.95;9.52;;;6.80;99.90;;;;;;5004224;28;20045;-87
2021/12/29 00:58:32;;;;;;;26.08;9.00;;;6.80;99.90;;;;;;5012969;28;20033;-87
2021/12/29 01:00:58;;;;;;;27.33;8.80;;;6.20;99.90;;;;;;5005896;28;20065;-87
2021/12/29 01:03:25;;;;;;;23.42;8.45;;;6.20;99.90;;;;;;5016969;28;20067;-86
2021/12/29 01:05:50;;;;;;;19.67;8.85;;;6.50;99.90;;;;;;4999148;28;20115;-86
2021/12/29 01:08:16;;;;;;;24.52;8.82;;;6.10;99.90;;;;;;5001374;28;20490;-86
2021/12/29 01:10:42;;;;;;;29.70;10.38;;;6.20;99.90;;;;;;5000532;28;20033;-86
2021/12/29 01:13:14;;;;;;;26.38;8.95;;;6.60;99.90;;;;;;5006616;28;20045;-87
2021/12/29 01:18:27;;;;;;;22.88;8.30;;;7.10;99.90;;;;;;5030607;28;20063;-86
2021/12/29 01:20:54;;;;;;;26.50;8.55;;;6.10;99.90;;;;;;5002605;28;20051;-86
2021/12/29 01:23:20;;;;;;;22.45;8.35;;;6.20;99.90;;;;;;4988928;28;20140;-86
2021/12/29 01:25:46;;;;;;;24.92;9.23;;;6.10;99.90;;;;;;5024729;28;20108;-86
2021/12/29 01:28:12;;;;;;;30.55;9.80;;;6.50;99.90;;;;;;5002259;28;20602;-87
2021/12/29 01:30:38;;;;;;;25.23;9.55;;;6.70;99.90;;;;;;4999212;28;20080;-86
2021/12/29 01:33:06;;;;;;;26.50;9.55;;;6.30;99.90;;;;;;5005174;28;20120;-87
2021/12/29 01:35:37;;;;;;;25.38;9.55;;;6.60;99.90;;;;;;5015536;28;20910;-87
2021/12/29 01:38:05;;;;;;;36.17;10.15;;;6.50;99.90;;;;;;5010950;28;20038;-86
2021/12/29 01:40:32;;;;;;;35.63;10.70;;;6.10;99.90;;;;;;5007428;28;20150;-86
2021/12/29 01:42:58;;;;;;;28.45;10.52;;;6.50;99.90;;;;;;5033355;28;20042;-86
2021/12/29 01:45:26;;;;;;;30.30;9.80;;;6.10;99.90;;;;;;4988833;28;20040;-86
2021/12/29 01:47:52;;;;;;;37.92;10.77;;;6.20;99.90;;;;;;5015188;28;20033;-86
2021/12/29 01:50:18;;;;;;;37.25;11.05;;;6.20;99.90;;;;;;4998551;28;20072;-87
2021/12/29 01:52:53;;;;;;;38.28;10.35;;;6.10;99.90;;;;;;5010548;28;20033;-87
2021/12/29 01:55:19;;;;;;;44.55;11.20;;;6.20;99.90;;;;;;5015233;28;20045;-87
2021/12/29 01:57:45;;;;;;;53.67;11.85;;;6.10;99.90;;;;;;5025859;28;20118;-87
2021/12/29 02:00:16;;;;;;;60.05;12.60;;;6.10;99.90;;;;;;5008488;28;20065;-87
2021/12/29 02:02:42;;;;;;;50.55;12.13;;;6.20;99.90;;;;;;5029657;28;20042;-87
2021/12/29 02:05:08;;;;;;;59.33;12.32;;;6.20;99.90;;;;;;4984876;28;20033;-86
2021/12/29 02:07:34;;;;;;;60.63;13.68;;;6.20;99.90;;;;;;4990885;28;20602;-86
2021/12/29 02:09:59;;;;;;;68.95;15.10;;;6.30;99.90;;;;;;5027580;28;20033;-87
2021/12/29 02:12:25;;;;;;;73.13;14.15;;;6.50;99.90;;;;;;5000657;28;20040;-87
2021/12/29 02:14:51;;;;;;;84.68;14.63;;;6.30;99.90;;;;;;4997912;28;20056;-87
2021/12/29 02:17:17;;;;;;;91.28;15.35;;;6.30;99.90;;;;;;5006900;28;20036;-86
2021/12/29 02:19:46;;;;;;;79.65;15.13;;;6.30;99.90;;;;;;5007368;28;20036;-86
2021/12/29 02:25:53;;;;;;;94.60;17.08;;;6.40;99.90;;;;;;5013684;28;20048;-86
2021/12/29 02:27:55;;;;;;;119.00;17.40;;;6.40;99.90;;;;;;5020992;28;20095;-87
2021/12/29 02:30:24;;;;;;;135.57;19.33;;;6.40;99.90;;;;;;4999985;28;20074;-86
2021/12/29 02:32:54;;;;;;;128.27;19.02;;;7.10;99.90;;;;;;5012792;28;20052;-87
2021/12/29 02:35:21;;;;;;;116.20;18.63;;;6.40;99.90;;;;;;5012102;28;20052;-86
2021/12/29 02:37:47;;;;;;;130.10;19.10;;;7.20;99.90;;;;;;5008067;28;20037;-85
2021/12/29 02:40:13;;;;;;;139.52;20.52;;;6.40;99.90;;;;;;5015137;28;20045;-87
2021/12/29 02:42:41;;;;;;;166.55;21.80;;;6.60;99.90;;;;;;5005229;28;20175;-86
2021/12/29 02:45:14;;;;;;;141.63;18.83;;;6.40;99.90;;;;;;5032615;28;20045;-86
2021/12/29 02:47:41;;;;;;;112.45;17.80;;;6.40;99.90;;;;;;5027095;28;20025;-86
2021/12/29 02:50:08;;;;;;;106.05;17.83;;;6.50;99.90;;;;;;5026796;28;20437;-86
2021/12/29 02:52:34;;;;;;;92.93;16.65;;;6.50;99.90;;;;;;5001743;28;20044;-86
2021/12/29 02:54:59;;;;;;;134.93;19.73;;;6.50;99.90;;;;;;5000650;28;20457;-86
2021/12/29 02:57:25;;;;;;;107.72;17.38;;;6.50;99.90;;;;;;5000726;28;20037;-86
2021/12/29 02:59:51;;;;;;;97.05;16.70;;;6.50;99.90;;;;;;5004263;28;20116;-85
2021/12/29 03:02:17;;;;;;;86.72;15.80;;;6.50;99.90;;;;;;4994295;28;20861;-85
2021/12/29 03:04:42;;;;;;;73.78;14.38;;;6.40;99.90;;;;;;5002320;28;20045;-86
2021/12/29 03:07:08;;;;;;;90.15;15.13;;;6.40;99.90;;;;;;4977415;28;20542;-86
2021/12/29 03:09:34;;;;;;;93.47;14.52;;;6.40;99.90;;;;;;4969134;28;20040;-86
2021/12/29 03:12:00;;;;;;;88.40;14.93;;;6.50;99.90;;;;;;4995983;28;20113;-86
2021/12/29 03:14:26;;;;;;;81.82;15.82;;;6.50;99.90;;;;;;4979963;28;20092;-86
2021/12/29 03:16:52;;;;;;;68.13;13.32;;;6.50;99.90;;;;;;4981939;28;20033;-87
2021/12/29 03:19:18;;;;;;;78.63;15.07;;;7.30;99.90;;;;;;4980357;28;20044;-87
2021/12/29 03:21:45;;;;;;;90.70;15.32;;;6.60;99.90;;;;;;5007445;28;20491;-86
2021/12/29 03:24:11;;;;;;;84.47;15.63;;;6.50;99.90;;;;;;4988913;28;20072;-87
2021/12/29 03:26:37;;;;;;;82.13;15.80;;;6.50;99.90;;;;;;4978863;28;20060;-87
2021/12/29 03:29:06;;;;;;;73.97;15.10;;;7.20;99.90;;;;;;4993283;28;20035;-86
2021/12/29 03:31:37;;;;;;;60.15;12.98;;;6.60;99.90;;;;;;4991880;28;20040;-86
2021/12/29 03:34:03;;;;;;;72.75;15.32;;;6.60;99.90;;;;;;5008569;28;20037;-87
2021/12/29 03:36:29;;;;;;;61.67;14.27;;;6.70;99.90;;;;;;4982365;28;20044;-86
2021/12/29 03:38:55;;;;;;;58.45;13.93;;;6.60;99.90;;;;;;4979571;28;20049;-86
2021/12/29 03:41:24;;;;;;;58.85;13.70;;;7.00;99.90;;;;;;5007685;28;20029;-86
2021/12/29 03:43:50;;;;;;;57.42;13.60;;;6.60;99.90;;;;;;5003780;28;20045;-86
2021/12/29 03:46:16;;;;;;;65.57;14.27;;;6.70;99.90;;;;;;4987231;28;20033;-87
2021/12/29 03:48:44;;;;;;;54.45;15.15;;;6.70;99.90;;;;;;5010748;28;20061;-87
2021/12/29 03:51:10;;;;;;;62.83;15.32;;;6.80;99.90;;;;;;4963520;28;20033;-86
2021/12/29 03:53:37;;;;;;;55.05;14.82;;;6.80;99.90;;;;;;4982884;28;20088;-86
2021/12/29 03:56:04;;;;;;;53.58;14.38;;;6.70;99.90;;;;;;4991019;28;20094;-87
2021/12/29 03:58:30;;;;;;;55.50;16.05;;;6.80;99.90;;;;;;5007128;28;20076;-87
2021/12/29 04:01:04;;;;;;;56.58;15.20;;;6.80;99.90;;;;;;4993851;28;20109;-87
2021/12/29 04:03:29;;;;;;;60.05;15.65;;;6.80;99.90;;;;;;5016517;28;20388;-87
2021/12/29 04:05:56;;;;;;;56.13;15.48;;;6.80;99.90;;;;;;5004869;28;20036;-87
2021/12/29 04:08:21;;;;;;;56.33;15.23;;;6.80;99.90;;;;;;5014079;28;20041;-87
2021/12/29 04:10:47;;;;;;;63.90;15.70;;;6.80;99.90;;;;;;5007284;28;20071;-87
2021/12/29 04:13:13;;;;;;;52.45;14.85;;;6.80;99.90;;;;;;5000740;28;20033;-87
2021/12/29 04:15:39;;;;;;;48.25;13.80;;;6.80;99.90;;;;;;4987048;28;20124;-87
2021/12/29 04:18:15;;;;;;;57.55;15.68;;;6.80;99.90;;;;;;4998747;28;20103;-86
2021/12/29 04:20:54;;;;;;;49.35;15.90;;;6.80;99.90;;;;;;5015181;28;20048;-87
2021/12/29 04:23:21;;;;;;;64.22;17.20;;;6.80;99.90;;;;;;5027015;28;20044;-87
2021/12/29 04:25:51;;;;;;;61.97;16.58;;;6.90;99.90;;;;;;4995870;28;20045;-87
2021/12/29 04:28:20;;;;;;;60.45;16.95;;;6.90;99.90;;;;;;4999995;28;20490;-87
2021/12/29 04:31:06;;;;;;;53.28;17.00;;;7.00;99.90;;;;;;4994325;28;20037;-86
2021/12/29 04:33:33;;;;;;;61.20;17.05;;;7.10;99.90;;;;;;5009961;28;20037;-87
2021/12/29 04:35:59;;;;;;;66.55;18.42;;;7.30;99.90;;;;;;4993780;28;20030;-87
2021/12/29 04:38:25;;;;;;;71.85;19.15;;;7.00;99.90;;;;;;4993990;28;20039;-87
2021/12/29 04:40:55;;;;;;;64.60;19.60;;;6.90;99.90;;;;;;4997066;28;20033;-87
2021/12/29 04:43:22;;;;;;;62.38;19.55;;;6.90;99.90;;;;;;5025231;28;20670;-87
2021/12/29 04:45:49;;;;;;;79.65;21.45;;;6.90;99.90;;;;;;5018824;28;20033;-87
2021/12/29 04:48:15;;;;;;;64.68;18.33;;;7.00;99.90;;;;;;5009639;28;20116;-87
2021/12/29 04:50:49;;;;;;;57.78;16.77;;;6.90;99.90;;;;;;5021223;28;20032;-87
2021/12/29 04:53:16;;;;;;;67.40;19.25;;;7.00;99.90;;;;;;5009076;28;20037;-86
2021/12/29 04:55:45;;;;;;;70.60;20.15;;;7.00;99.90;;;;;;5023073;28;20052;-85
2021/12/29 04:58:11;;;;;;;62.50;19.98;;;7.10;99.90;;;;;;5005355;28;20407;-87
2021/12/29 05:00:37;;;;;;;66.07;19.85;;;7.00;99.90;;;;;;5011237;28;20836;-87
2021/12/29 05:03:04;;;;;;;63.63;19.63;;;7.50;99.90;;;;;;5015001;28;20760;-87
2021/12/29 05:10:46;;;;;;;55.60;19.35;;;7.00;99.90;;;;;;5023249;28;20099;-86
2021/12/29 05:13:12;;;;;;;58.17;20.13;;;7.00;99.90;;;;;;5006647;28;20033;-87
2021/12/29 05:15:38;;;;;;;57.03;20.13;;;7.00;99.90;;;;;;5036482;28;20037;-87
2021/12/29 05:18:04;;;;;;;59.63;19.23;;;7.00;99.90;;;;;;5014556;28;20091;-87
2021/12/29 05:20:30;;;;;;;71.75;20.65;;;7.00;99.90;;;;;;4981844;28;20049;-87
2021/12/29 05:22:58;;;;;;;55.28;18.65;;;7.60;99.90;;;;;;5030500;28;20041;-87
2021/12/29 05:25:25;;;;;;;48.50;17.25;;;7.50;99.90;;;;;;5034241;28;20045;-87
2021/12/29 05:27:51;;;;;;;48.40;18.02;;;7.10;99.90;;;;;;5032817;28;20037;-86
2021/12/29 05:30:17;;;;;;;53.38;17.35;;;7.20;99.90;;;;;;5014987;28;20033;-87
2021/12/29 05:32:43;;;;;;;47.92;16.63;;;7.00;99.90;;;;;;5013311;28;20075;-86
2021/12/29 05:35:09;;;;;;;52.47;17.38;;;7.00;99.90;;;;;;5013315;28;20053;-86
2021/12/29 05:37:35;;;;;;;51.45;16.48;;;7.00;99.90;;;;;;5014051;28;20459;-87
2021/12/29 05:40:01;;;;;;;60.00;17.50;;;7.20;99.90;;;;;;5007462;28;20041;-86
2021/12/29 05:42:27;;;;;;;47.53;16.15;;;6.50;99.90;;;;;;5001582;28;20037;-87
2021/12/29 05:44:53;;;;;;;45.58;15.70;;;7.00;99.90;;;;;;5003874;28;20044;-87
2021/12/29 05:47:18;;;;;;;54.17;18.65;;;7.30;99.90;;;;;;5010924;28;20047;-86
2021/12/29 05:49:44;;;;;;;45.17;16.23;;;7.00;99.90;;;;;;4999873;28;20071;-87
2021/12/29 05:52:10;;;;;;;52.00;16.92;;;7.00;99.90;;;;;;5028192;28;20079;-87
2021/12/29 05:54:36;;;;;;;57.75;17.23;;;7.20;99.90;;;;;;4982453;28;20048;-87
2021/12/29 05:57:02;;;;;;;54.30;18.20;;;7.10;99.90;;;;;;5012378;28;20033;-87
2021/12/29 05:59:28;;;;;;;45.22;16.45;;;7.00;99.90;;;;;;4995434;28;20120;-87
2021/12/29 06:01:54;;;;;;;50.92;17.33;;;7.60;99.90;;;;;;5018837;28;20046;-86
2021/12/29 06:04:19;;;;;;;60.92;18.83;;;7.60;99.90;;;;;;4997894;28;20048;-87
2021/12/29 06:06:45;;;;;;;50.85;17.98;;;7.00;99.90;;;;;;4995993;28;20041;-87
2021/12/29 06:09:11;;;;;;;52.22;19.25;;;7.00;99.90;;;;;;5029527;28;20414;-87
2021/12/29 06:11:37;;;;;;;55.67;17.85;;;7.00;99.90;;;;;;5024321;28;20064;-86
2021/12/29 06:14:02;;;;;;;50.70;18.30;;;7.00;99.90;;;;;;5029607;28;20037;-86
2021/12/29 06:16:28;;;;;;;59.55;19.35;;;7.00;99.90;;;;;;4998145;28;20410;-86
2021/12/29 06:18:54;;;;;;;49.70;17.85;;;7.10;99.90;;;;;;4982531;28;20037;-87
2021/12/29 06:21:20;;;;;;;48.67;19.05;;;7.00;99.90;;;;;;5006802;28;20517;-86
2021/12/29 06:23:47;;;;;;;59.00;19.23;;;7.00;99.90;;;;;;4994390;28;20034;-86
2021/12/29 06:26:14;;;;;;;52.60;18.42;;;7.00;99.90;;;;;;5022271;28;20040;-86
2021/12/29 06:28:40;;;;;;;58.05;18.95;;;6.90;99.90;;;;;;4999545;28;20045;-87
2021/12/29 06:31:06;;;;;;;46.70;18.08;;;7.00;99.90;;;;;;5018618;28;20041;-87
2021/12/29 06:33:33;;;;;;;51.60;18.23;;;7.60;99.90;;;;;;5027675;28;20045;-86
2021/12/29 06:35:58;;;;;;;60.03;19.40;;;7.00;99.90;;;;;;5015106;28;20056;-87
2021/12/29 06:38:24;;;;;;;49.60;19.70;;;6.90;99.90;;;;;;4996398;28;20487;-87
2021/12/29 06:40:50;;;;;;;53.65;19.40;;;7.10;99.90;;;;;;5006085;28;20094;-87
2021/12/29 06:43:16;;;;;;;60.50;22.15;;;7.00;99.90;;;;;;5006056;28;20041;-88
2021/12/29 06:45:42;;;;;;;58.65;20.40;;;7.60;99.90;;;;;;5031707;28;20040;-86
2021/12/29 06:48:08;;;;;;;50.10;19.30;;;6.90;99.90;;;;;;5009530;28;20041;-87
2021/12/29 06:50:34;;;;;;;53.95;18.52;;;6.90;99.90;;;;;;5005543;28;20596;-86
2021/12/29 06:53:00;;;;;;;60.78;19.65;;;6.90;99.90;;;;;;4995150;28;20102;-87
2021/12/29 06:55:25;;;;;;;61.33;20.02;;;7.00;99.90;;;;;;4988085;28;20033;-87
2021/12/29 06:57:51;;;;;;;56.85;19.70;;;6.90;99.90;;;;;;5027166;28;20063;-86
2021/12/29 07:00:17;;;;;;;54.05;20.63;;;6.90;99.90;;;;;;4999238;28;20166;-87
2021/12/29 07:02:43;;;;;;;50.72;19.48;;;6.90;99.90;;;;;;5027413;28;20087;-87
2021/12/29 07:05:09;;;;;;;58.67;19.05;;;7.80;99.90;;;;;;5005156;28;20514;-86
2021/12/29 07:07:35;;;;;;;53.38;19.00;;;6.90;99.90;;;;;;5002224;28;20041;-87
2021/12/29 07:10:01;;;;;;;62.55;19.85;;;7.00;99.90;;;;;;4998190;28;20381;-86
2021/12/29 07:12:27;;;;;;;48.30;17.17;;;6.90;99.90;;;;;;4998843;28;20362;-86
2021/12/29 07:14:52;;;;;;;53.17;18.80;;;7.00;99.90;;;;;;5023694;28;20037;-86
2021/12/29 07:17:18;;;;;;;48.92;17.73;;;7.00;99.90;;;;;;5009510;28;20127;-86
2021/12/29 07:19:45;;;;;;;55.40;17.50;;;7.00;99.90;;;;;;4993476;28;20029;-87
2021/12/29 07:22:11;;;;;;;53.13;17.95;;;7.60;99.90;;;;;;5017931;28;20044;-87
2021/12/29 07:24:37;;;;;;;53.88;18.13;;;7.00;99.90;;;;;;4998291;28;20040;-87
2021/12/29 07:27:03;;;;;;;57.90;17.00;;;7.10;99.90;;;;;;5022771;28;20406;-86
2021/12/29 07:29:29;;;;;;;50.88;17.05;;;7.00;99.90;;;;;;4994487;28;20055;-86
2021/12/29 07:31:57;;;;;;;63.40;19.10;;;7.20;99.90;;;;;;5031358;28;20037;-86
2021/12/29 07:34:24;;;;;;;50.83;17.48;;;7.00;99.90;;;;;;4984011;28;20045;-86
2021/12/29 07:36:50;;;;;;;56.28;18.58;;;7.30;99.90;;;;;;5003550;28;20033;-86
2021/12/29 07:39:16;;;;;;;61.50;17.88;;;7.00;99.90;;;;;;5010094;28;20064;-87
2021/12/29 07:41:42;;;;;;;52.95;16.77;;;7.10;99.90;;;;;;5004631;28;20045;-86
2021/12/29 07:44:12;;;;;;;56.55;17.23;;;7.00;99.90;;;;;;5008361;28;20052;-86
2021/12/29 07:46:37;;;;;;;56.05;17.27;;;7.10;99.90;;;;;;4999386;28;20033;-86
2021/12/29 07:49:04;;;;;;;62.08;17.52;;;7.00;99.90;;;;;;4998315;28;20052;-86
2021/12/29 07:51:30;;;;;;;55.47;16.98;;;7.10;99.90;;;;;;5014944;28;20053;-87
2021/12/29 07:53:56;;;;;;;55.95;16.92;;;7.00;99.90;;;;;;5014434;28;20037;-86
2021/12/29 07:56:22;;;;;;;66.00;18.50;;;7.00;99.90;;;;;;5034530;28;20156;-87
2021/12/29 07:58:48;;;;;;;63.63;17.55;;;7.00;99.90;;;;;;5025048;28;20116;-86
2021/12/29 08:01:14;;;;;;;58.97;16.75;;;7.10;99.90;;;;;;4994146;28;20057;-86
2021/12/29 08:03:40;;;;;;;54.90;16.13;;;7.10;99.90;;;;;;5005116;28;20098;-86
2021/12/29 08:06:06;;;;;;;58.78;17.80;;;7.30;99.90;;;;;;5008754;28;20056;-86
2021/12/29 08:08:32;;;;;;;74.43;18.05;;;7.10;99.90;;;;;;5011595;28;20041;-86
2021/12/29 08:10:58;;;;;;;73.93;18.85;;;7.10;99.90;;;;;;4999447;28;20104;-86
2021/12/29 08:13:24;;;;;;;71.32;19.08;;;7.10;99.90;;;;;;5017886;28;20045;-86
2021/12/29 08:15:49;;;;;;;73.28;19.33;;;7.10;99.90;;;;;;5019938;28;20029;-87
2021/12/29 08:18:15;;;;;;;84.80;21.35;;;7.10;99.90;;;;;;5011229;28;20402;-84
2021/12/29 08:20:42;;;;;;;76.15;20.90;;;7.40;99.90;;;;;;5010257;28;20045;-86
2021/12/29 08:23:09;;;;;;;81.53;21.20;;;7.10;99.90;;;;;;5025974;28;20091;-87
2021/12/29 08:25:36;;;;;;;76.13;20.77;;;7.20;99.90;;;;;;4998227;28;20058;-86
2021/12/29 08:28:03;;;;;;;98.57;22.73;;;7.60;99.90;;;;;;5002508;28;20538;-85
2021/12/29 08:30:29;;;;;;;84.00;20.40;;;7.10;99.90;;;;;;5059865;28;20072;-85
2021/12/29 08:32:55;;;;;;;72.25;19.67;;;7.10;99.90;;;;;;5028700;28;20045;-85
2021/12/29 08:35:21;;;;;;;85.82;22.58;;;7.20;99.90;;;;;;5003475;28;20048;-87
2021/12/29 08:37:47;;;;;;;96.15;23.05;;;7.90;99.90;;;;;;5029066;28;20037;-86
2021/12/29 08:40:14;;;;;;;106.63;22.60;;;7.20;99.90;;;;;;5014313;28;20077;-86
2021/12/29 08:42:41;;;;;;;92.65;20.60;;;7.20;99.90;;;;;;5005238;28;20480;-86
2021/12/29 08:45:10;;;;;;;84.35;21.00;;;7.10;99.90;;;;;;5042714;28;20037;-86
2021/12/29 08:47:36;;;;;;;101.90;22.75;;;7.10;99.90;;;;;;5036373;28;20060;-86
2021/12/29 08:50:07;;;;;;;108.07;23.23;;;7.20;99.90;;;;;;5014997;28;20510;-86
2021/12/29 08:52:35;;;;;;;101.90;24.52;;;7.20;99.90;;;;;;5029616;28;20304;-86
2021/12/29 08:55:02;;;;;;;95.10;23.30;;;7.20;99.90;;;;;;5034608;28;20048;-86
2021/12/29 08:57:28;;;;;;;107.90;25.60;;;7.10;99.90;;;;;;5035079;28;20040;-86
2021/12/29 08:59:54;;;;;;;102.93;22.38;;;7.10;99.90;;;;;;5017458;28;20052;-86
2021/12/29 09:02:20;;;;;;;100.80;23.17;;;7.10;99.90;;;;;;5034474;28;20041;-86
2021/12/29 09:04:45;;;;;;;94.78;24.70;;;7.20;99.90;;;;;;5001125;28;20039;-86
2021/12/29 09:07:11;;;;;;;99.30;23.77;;;7.20;99.90;;;;;;5018110;28;20071;-86
2021/12/29 09:09:37;;;;;;;95.43;23.20;;;7.50;99.90;;;;;;5017819;28;20033;-86
2021/12/29 09:12:03;;;;;;;90.45;22.33;;;7.10;99.90;;;;;;5027366;28;20041;-86
2021/12/29 09:14:28;;;;;;;83.22;22.10;;;7.20;99.90;;;;;;4995393;28;20087;-86
2021/12/29 09:16:54;;;;;;;83.03;19.60;;;7.20;99.90;;;;;;4996286;28;20095;-86
2021/12/29 09:19:22;;;;;;;92.72;21.73;;;7.20;99.90;;;;;;5010013;28;20047;-86
2021/12/29 09:21:52;;;;;;;72.32;18.98;;;7.40;99.90;;;;;;5002321;28;20069;-85
2021/12/29 09:24:18;;;;;;;76.78;18.73;;;7.30;99.90;;;;;;5018165;28;20082;-86
2021/12/29 09:26:43;;;;;;;73.45;19.63;;;7.30;99.90;;;;;;5016678;28;20045;-85
2021/12/29 09:29:09;;;;;;;70.95;17.98;;;7.20;99.90;;;;;;5018029;28;20037;-86
2021/12/29 09:31:35;;;;;;;68.90;18.63;;;7.30;99.90;;;;;;5014854;28;20037;-86
2021/12/29 09:34:01;;;;;;;76.32;18.75;;;7.40;99.90;;;;;;5034148;28;20090;-86
2021/12/29 09:36:27;;;;;;;67.03;18.13;;;7.30;99.90;;;;;;5017460;28;20521;-86
2021/12/29 09:38:52;;;;;;;69.18;18.45;;;7.30;99.90;;;;;;5017255;28;20037;-86
2021/12/29 09:41:19;;;;;;;78.47;19.52;;;7.30;99.90;;;;;;5015743;28;20196;-86
2021/12/29 09:43:46;;;;;;;62.65;16.17;;;7.40;99.90;;;;;;5034503;28;20053;-86
2021/12/29 09:46:14;;;;;;;72.88;17.95;;;7.40;99.90;;;;;;5007961;28;20037;-86
2021/12/29 09:48:40;;;;;;;64.95;17.13;;;7.40;99.90;;;;;;5013961;28;20090;-86
2021/12/29 09:51:08;;;;;;;65.80;18.02;;;7.40;99.90;;;;;;5014582;28;20041;-86
2021/12/29 09:53:34;;;;;;;89.82;19.50;;;7.40;99.90;;;;;;5008598;28;20076;-86
2021/12/29 09:56:00;;;;;;;89.90;19.85;;;7.40;99.90;;;;;;5014036;28;20164;-86
2021/12/29 09:58:26;;;;;;;106.53;20.95;;;7.40;99.90;;;;;;5006641;28;20042;-86
2021/12/29 10:00:59;;;;;;;92.07;19.10;;;7.50;99.90;;;;;;5016498;28;20053;-86
2021/12/29 10:03:28;;;;;;;87.65;19.27;;;7.50;99.90;;;;;;5006067;28;20045;-86
2021/12/29 10:05:57;;;;;;;91.15;20.30;;;7.50;99.90;;;;;;5015110;28;20033;-86
2021/12/29 10:08:29;;;;;;;88.00;19.98;;;7.50;99.90;;;;;;5017491;28;20087;-86
2021/12/29 10:10:58;;;;;;;87.35;18.60;;;7.60;99.90;;;;;;5016635;28;20032;-86
2021/12/29 10:13:27;;;;;;;80.65;17.88;;;7.50;99.90;;;;;;5033885;28;20041;-86
2021/12/29 10:15:55;;;;;;;71.70;17.70;;;7.60;99.90;;;;;;5016597;28;20063;-86
2021/12/29 10:18:25;;;;;;;59.20;16.33;;;7.60;99.90;;;;;;5033658;28;20130;-86
2021/12/29 10:20:54;;;;;;;44.72;14.38;;;7.60;99.90;;;;;;5032781;28;20036;-86
2021/12/29 10:23:26;;;;;;;44.92;13.13;;;7.60;99.90;;;;;;5033012;28;20461;-86
2021/12/29 10:25:54;;;;;;;53.47;15.13;;;7.60;99.90;;;;;;5015715;28;21667;-86
2021/12/29 10:28:31;;;;;;;46.47;13.13;;;7.80;99.90;;;;;;5015106;28;20083;-87
2021/12/29 10:31:17;;;;;;;32.92;12.07;;;7.60;99.90;;;;;;5031913;28;20094;-87
2021/12/29 10:33:49;;;;;;;36.67;11.63;;;7.60;99.90;;;;;;5032603;28;20120;-86
2021/12/29 10:36:20;;;;;;;37.78;13.00;;;7.60;99.90;;;;;;5015498;28;20529;-86
2021/12/29 10:39:08;;;;;;;32.25;11.30;;;7.60;99.90;;;;;;5015069;28;20039;-86
2021/12/29 10:41:49;;;;;;;35.28;10.90;;;7.60;99.90;;;;;;5005157;28;20128;-86
2021/12/29 10:44:24;;;;;;;29.45;10.10;;;7.60;99.90;;;;;;5014487;28;20052;-86
2021/12/29 10:46:52;;;;;;;40.90;12.10;;;7.70;99.90;;;;;;5015517;28;20033;-86
2021/12/29 10:49:18;;;;;;;39.25;11.88;;;7.80;99.90;;;;;;5015961;28;20073;-85
2021/12/29 10:51:45;;;;;;;40.20;11.90;;;7.70;99.90;;;;;;4993827;28;20188;-86
2021/12/29 10:54:17;;;;;;;36.63;10.23;;;8.00;99.90;;;;;;5023242;28;20048;-86
2021/12/29 10:56:56;;;;;;;33.67;11.32;;;7.70;99.90;;;;;;5015241;28;20171;-86
2021/12/29 10:59:25;;;;;;;40.03;11.90;;;7.70;99.90;;;;;;5015777;28;20047;-86
2021/12/29 11:01:52;;;;;;;43.05;12.55;;;7.70;99.90;;;;;;5031607;28;20057;-86
2021/12/29 11:04:19;;;;;;;43.17;12.60;;;7.70;99.90;;;;;;4999831;28;20131;-86
2021/12/29 11:06:47;;;;;;;36.85;12.82;;;7.60;99.90;;;;;;5015672;28;20041;-86
2021/12/29 11:09:15;;;;;;;40.50;13.52;;;7.80;99.90;;;;;;5016044;28;20044;-86
2021/12/29 11:11:46;;;;;;;40.03;13.90;;;7.70;99.90;;;;;;5016037;28;20047;-86
2021/12/29 11:14:43;;;;;;;35.33;13.05;;;7.70;99.90;;;;;;5015725;28;20490;-86
2021/12/29 11:17:24;;;;;;;36.80;13.05;;;7.70;99.90;;;;;;5006496;28;20053;-86
2021/12/29 11:19:56;;;;;;;32.88;12.18;;;7.70;99.90;;;;;;5024720;28;20079;-86
2021/12/29 11:22:25;;;;;;;33.50;11.77;;;7.70;99.90;;;;;;5015504;28;20043;-86
2021/12/29 11:25:00;;;;;;;32.28;12.77;;;7.70;99.90;;;;;;5032092;28;20037;-86
2021/12/29 11:27:27;;;;;;;32.83;12.68;;;7.80;99.90;;;;;;5015048;28;20029;-86
2021/12/29 11:29:58;;;;;;;30.60;12.20;;;7.80;99.90;;;;;;4999500;28;20612;-86
2021/12/29 11:32:37;;;;;;;39.55;13.10;;;7.90;99.90;;;;;;5016038;28;20033;-86
2021/12/29 11:35:24;;;;;;;36.70;12.88;;;7.90;99.90;;;;;;5015357;28;20040;-86
2021/12/29 11:37:55;;;;;;;63.75;26.23;;;7.90;99.90;;;;;;5034687;28;20044;-86
2021/12/29 11:40:25;;;;;;;71.05;36.70;;;7.90;99.90;;;;;;5015850;28;20029;-86
2021/12/29 11:42:52;;;;;;;60.30;29.45;;;7.90;99.90;;;;;;5015232;28;20046;-86
2021/12/29 11:45:18;;;;;;;45.22;20.85;;;7.90;99.90;;;;;;4998091;28;20088;-86
2021/12/29 11:47:44;;;;;;;46.25;20.08;;;7.90;99.90;;;;;;5031687;28;20041;-86
2021/12/29 11:50:16;;;;;;;36.08;16.60;;;8.00;99.90;;;;;;4995972;28;20033;-86
2021/12/29 11:52:59;;;;;;;36.85;14.70;;;8.00;99.90;;;;;;5015565;28;20402;-86
2021/12/29 11:55:32;;;;;;;34.28;13.48;;;8.00;99.90;;;;;;5016892;28;20304;-86
2021/12/29 11:58:18;;;;;;;29.33;11.70;;;8.00;99.90;;;;;;5035992;28;20067;-86
2021/12/29 12:00:59;;;;;;;44.83;13.00;;;8.00;99.90;;;;;;5035339;28;20049;-86
2021/12/29 12:03:25;;;;;;;33.53;11.85;;;8.10;99.90;;;;;;5019436;28;20048;-86
2021/12/29 12:05:51;;;;;;;34.10;12.95;;;8.00;99.90;;;;;;5019809;28;20032;-86
2021/12/29 12:08:23;;;;;;;32.10;12.63;;;8.00;99.90;;;;;;5017199;28;20037;-86
2021/12/29 12:10:50;;;;;;;29.10;11.50;;;8.00;99.90;;;;;;5016377;28;20049;-86
2021/12/29 12:13:36;;;;;;;28.10;11.32;;;8.00;99.90;;;;;;5019057;28;20531;-86
2021/12/29 12:16:12;;;;;;;29.20;11.07;;;8.00;99.90;;;;;;5018781;28;20034;-86
2021/12/29 12:18:42;;;;;;;38.80;12.07;;;8.00;99.90;;;;;;5019006;28;20036;-86
2021/12/29 12:21:29;;;;;;;34.45;12.45;;;8.00;99.90;;;;;;5002531;28;20032;-86
2021/12/29 12:24:08;;;;;;;33.05;11.25;;;8.00;99.90;;;;;;5019152;28;20406;-86
2021/12/29 12:26:35;;;;;;;31.48;11.73;;;8.00;99.90;;;;;;5018655;28;20123;-86
2021/12/29 12:29:00;;;;;;;33.03;11.70;;;8.00;99.90;;;;;;5019217;28;20520;-86
2021/12/29 12:31:30;;;;;;;28.70;9.65;;;7.90;99.90;;;;;;5018935;28;20116;-86
2021/12/29 12:34:08;;;;;;;28.02;11.25;;;7.90;99.90;;;;;;5018839;28;20044;-86
2021/12/29 12:36:34;;;;;;;33.53;12.02;;;8.10;99.90;;;;;;5018700;28;20094;-86
2021/12/29 12:39:28;;;;;;;33.10;11.50;;;8.00;99.90;;;;;;5018512;28;20043;-86
2021/12/29 12:41:56;;;;;;;34.90;12.38;;;8.00;99.90;;;;;;5000882;28;20709;-86
2021/12/29 12:44:35;;;;;;;31.75;13.02;;;8.00;99.90;;;;;;5035313;28;20702;-86
2021/12/29 12:47:14;;;;;;;33.15;13.18;;;7.90;99.90;;;;;;5018381;28;20094;-86
2021/12/29 12:49:51;;;;;;;33.40;13.02;;;8.00;99.90;;;;;;5018653;28;20110;-86
2021/12/29 12:52:18;;;;;;;39.22;12.70;;;8.00;99.90;;;;;;5004722;28;20466;-86